Time;durP1;ratioP1;P1;durP2;ratioP2;P2;SDS_P1;SDS_P2;PMS_P1;PMS_P2;Temp;Humidity;BMP_temperature;BMP_pressure;BME280_temperature;BME280_humidity;BME280_pressure;Samples;Min_cycle;Max_cycle;Signal;HPM_P1;HPM_P2
2023/08/10 00:02:36;;;;;;;;;1.00;1.00;;;;;24.27;49.41;100811.88;146640;592;46913;-78
2023/08/10 00:05:32;;;;;;;;;3.00;3.00;;;;;24.29;48.84;100826.87;146638;599;47020;-76
2023/08/10 00:08:31;;;;;;;;;2.00;2.00;;;;;24.31;47.11;100816.28;146640;590;46037;-76
2023/08/10 00:11:31;;;;;;;;;2.00;1.00;;;;;24.32;47.13;100816.28;146643;627;45020;-76
2023/08/10 00:14:34;;;;;;;;;1.67;1.67;;;;;24.31;47.19;100832.19;146642;594;45012;-76
2023/08/10 00:17:33;;;;;;;;;0.67;0.67;;;;;24.30;47.07;100841.00;146645;707;46010;-83
2023/08/10 00:20:33;;;;;;;;;1.00;1.00;;;;;24.27;47.16;100823.37;146641;587;45913;-83
2023/08/10 00:23:30;;;;;;;;;3.33;2.00;;;;;24.17;48.00;100816.31;146642;602;45021;-83
2023/08/10 00:26:33;;;;;;;;;1.00;1.00;;;;;24.05;48.66;100817.25;146635;584;47014;-82
2023/08/10 00:29:34;;;;;;;;;1.00;1.00;;;;;23.94;48.40;100819.91;146643;626;46010;-74
2023/08/10 00:32:33;;;;;;;;;2.33;2.33;;;;;23.81;48.64;100817.31;146640;579;45914;-78
2023/08/10 00:35:31;;;;;;;;;2.00;2.00;;;;;23.62;49.50;100819.06;146643;569;45020;-78
2023/08/10 00:38:38;;;;;;;;;4.00;4.00;;;;;23.48;50.81;100821.69;146637;588;46012;-78
2023/08/10 00:41:47;;;;;;;;;2.33;0.67;;;;;23.36;50.89;100819.94;146642;555;45010;-76
2023/08/10 00:44:42;;;;;;;;;3.33;1.67;;;;;23.26;50.09;100818.16;146635;575;46014;-79
2023/08/10 00:47:52;;;;;;;;;1.00;1.00;;;;;23.16;49.80;100817.28;146640;616;46010;-80
2023/08/10 00:50:51;;;;;;;;;1.00;1.00;;;;;23.07;50.48;100826.97;146637;665;46016;-79
2023/08/10 00:54:00;;;;;;;;;;;;;;;;;;;;;
2023/08/10 00:57:01;;;;;;;;;3.00;2.00;;;;;22.95;50.90;100823.41;146637;597;47012;-74
2023/08/10 01:00:26;;;;;;;;;3.00;2.00;;;;;21.42;50.77;100562.28;146646;572;45010;-75
2023/08/10 01:03:38;;;;;;;;;0.33;0.33;;;;;22.07;51.31;100695.38;146637;589;46016;-76
2023/08/10 01:07:27;;;;;;;;;3.00;2.00;;;;;21.31;51.55;100552.50;146642;596;45031;-73
2023/08/10 01:11:08;;;;;;;;;2.00;2.00;;;;;22.82;50.75;100797.78;146641;619;44917;-75
2023/08/10 01:15:08;;;;;;;;;1.00;1.00;;;;;21.27;50.58;100519.97;146639;633;46014;-78
2023/08/10 01:18:38;;;;;;;;;1.00;1.00;;;;;22.99;50.16;100803.13;146637;567;46014;-79
2023/08/10 01:22:24;;;;;;;;;1.33;1.33;;;;;23.02;50.46;100795.22;146645;711;46010;-82
2023/08/10 01:25:20;;;;;;;;;2.00;1.00;;;;;23.06;49.54;100797.00;146640;740;46010;-80
2023/08/10 01:28:36;;;;;;;;;0.67;0.67;;;;;23.10;49.05;100789.94;146645;569;45020;-79
2023/08/10 01:31:41;;;;;;;;;1.67;0.67;;;;;23.13;48.95;100792.59;146636;625;46012;-79
2023/08/10 01:34:34;;;;;;;;;1.00;1.00;;;;;23.15;49.20;100790.84;146625;678;47010;-76
2023/08/10 01:37:32;;;;;;;;;1.00;1.00;;;;;23.19;49.77;100784.66;146620;679;46017;-77
2023/08/10 01:40:27;;;;;;;;;2.00;2.00;;;;;23.28;49.97;100789.97;146625;582;46010;-78
2023/08/10 01:43:41;;;;;;;;;2.00;2.00;;;;;23.36;49.53;100789.94;146616;605;47917;-79
2023/08/10 01:46:40;;;;;;;;;1.00;1.00;;;;;23.46;49.34;100789.09;146623;701;46021;-77
2023/08/10 01:49:38;;;;;;;;;0.00;0.00;;;;;23.52;48.36;100789.97;146617;623;46016;-76
2023/08/10 01:52:43;;;;;;;;;1.00;1.00;;;;;23.48;48.79;100782.00;146618;711;47020;-76
2023/08/10 01:55:54;;;;;;;;;1.00;1.00;;;;;23.52;49.49;100783.78;146617;649;47014;-81
2023/08/10 01:58:46;;;;;;;;;2.00;1.00;;;;;23.58;49.84;100785.50;146623;753;46029;-83
2023/08/10 02:01:54;;;;;;;;;1.33;0.33;;;;;22.11;49.73;100536.06;146617;566;47013;-83
2023/08/10 02:04:52;;;;;;;;;1.67;1.00;;;;;23.63;48.84;100787.28;146620;708;46020;-83
2023/08/10 02:07:49;;;;;;;;;2.00;1.33;;;;;23.57;48.73;100784.62;146614;647;48915;-82
2023/08/10 02:10:47;;;;;;;;;1.00;1.00;;;;;23.50;47.61;100783.78;146621;595;47010;-83
2023/08/10 02:14:16;;;;;;;;;2.00;2.00;;;;;21.94;49.81;100540.47;146620;608;46016;-81
2023/08/10 02:17:35;;;;;;;;;1.00;1.00;;;;;23.27;49.95;100778.50;146622;579;46018;-82
2023/08/10 02:20:39;;;;;;;;;0.00;0.00;;;;;23.18;50.00;100785.56;146617;588;46016;-84
2023/08/10 02:24:04;;;;;;;;;1.00;1.00;;;;;23.07;50.23;100787.28;146625;676;46021;-83
2023/08/10 02:27:03;;;;;;;;;1.00;1.00;;;;;23.04;49.96;100786.41;146621;569;46012;-83
2023/08/10 02:30:18;;;;;;;;;2.67;1.00;;;;;23.03;50.61;100789.06;146621;592;46021;-82
2023/08/10 02:33:30;;;;;;;;;0.33;0.33;;;;;23.03;50.08;100781.12;146615;684;46016;-79
2023/08/10 02:36:24;;;;;;;;;2.67;1.00;;;;;23.00;50.58;100789.06;146621;666;46020;-78
2023/08/10 02:39:16;;;;;;;;;1.00;1.00;;;;;22.89;50.77;100789.00;146617;656;46017;-77
2023/08/10 02:42:15;;;;;;;;;3.67;2.67;;;;;22.80;51.22;100797.81;146619;620;46020;-77
2023/08/10 02:45:38;;;;;;;;;0.67;0.67;;;;;22.74;51.58;100808.38;146620;576;46039;-77
2023/08/10 02:48:42;;;;;;;;;2.00;2.00;;;;;22.68;52.09;100808.34;146621;672;46020;-77
2023/08/10 02:51:38;;;;;;;;;1.33;1.33;;;;;22.62;52.08;100803.03;146617;613;46016;-77
2023/08/10 02:54:39;;;;;;;;;3.00;2.00;;;;;22.56;52.61;100813.59;146622;700;47010;-77
2023/08/10 02:58:15;;;;;;;;;;;;;;;;;;;;;
2023/08/10 03:01:18;;;;;;;;;2.33;2.33;;;;;22.38;53.80;100806.47;146620;591;47019;-77
2023/08/10 03:04:28;;;;;;;;;2.00;2.00;;;;;22.32;53.73;100809.97;146619;633;46014;-78
2023/08/10 03:07:29;;;;;;;;;3.00;3.00;;;;;22.28;54.07;100810.84;146624;657;46010;-77
2023/08/10 03:10:27;;;;;;;;;1.00;1.00;;;;;22.28;54.54;100818.75;146619;721;46016;-77
2023/08/10 03:13:42;;;;;;;;;2.00;1.33;;;;;22.33;54.44;100821.41;146625;621;46020;-76
2023/08/10 03:16:45;;;;;;;;;1.33;1.33;;;;;22.40;54.12;100822.31;146616;593;46017;-78
2023/08/10 03:19:57;;;;;;;;;2.00;1.00;;;;;22.47;54.37;100817.06;146619;612;47010;-83
2023/08/10 03:23:03;;;;;;;;;1.00;1.00;;;;;22.55;54.05;100820.63;146618;598;46017;-83
2023/08/10 03:26:04;;;;;;;;;1.00;0.00;;;;;22.60;53.31;100824.16;146624;587;46020;-82
2023/08/10 03:29:15;;;;;;;;;1.00;1.00;;;;;22.66;53.80;100820.66;146618;598;46016;-75
2023/08/10 03:32:27;;;;;;;;;2.33;2.33;;;;;22.71;53.08;100823.31;146620;614;47020;-80
2023/08/10 03:35:31;;;;;;;;;1.00;1.00;;;;;22.76;53.98;100818.94;146632;591;45916;-80
2023/08/10 03:38:33;;;;;;;;;3.00;2.67;;;;;22.86;54.38;100822.47;146636;592;45020;-79
2023/08/10 03:41:29;;;;;;;;;2.67;1.67;;;;;22.97;54.19;100813.72;146633;563;46031;-79
2023/08/10 03:44:28;;;;;;;;;2.00;2.00;;;;;22.97;53.81;100803.16;146706;572;45044;-78
2023/08/10 03:47:33;;;;;;;;;2.00;1.00;;;;;23.12;53.99;100812.00;146624;585;47017;-79
2023/08/10 03:50:40;;;;;;;;;;;;;;;;;;;;;
2023/08/10 03:53:36;;;;;;;;;2.00;2.00;;;;;23.17;54.49;100818.16;146622;565;47012;-78
2023/08/10 03:56:45;;;;;;;;;2.00;2.00;;;;;23.22;53.99;100814.62;146628;594;46021;-79
2023/08/10 03:59:43;;;;;;;;;2.33;2.33;;;;;23.27;53.41;100809.34;146616;587;48914;-79
2023/08/10 04:02:57;;;;;;;;;3.00;1.33;;;;;23.25;53.70;100819.94;146630;602;46011;-79
2023/08/10 04:06:16;;;;;;;;;3.00;3.00;;;;;23.26;54.29;100826.97;146620;563;46016;-79
2023/08/10 04:09:19;;;;;;;;;3.00;3.00;;;;;23.37;53.62;100828.78;146627;607;47010;-79
2023/08/10 04:12:14;;;;;;;;;3.00;3.00;;;;;23.39;53.85;100830.50;146619;639;47016;-79
2023/08/10 04:15:14;;;;;;;;;4.00;3.00;;;;;23.38;53.24;100819.94;146628;579;46020;-79
2023/08/10 04:18:23;;;;;;;;;4.00;3.00;;;;;23.35;53.65;100820.81;146625;639;46013;-78
2023/08/10 04:21:17;;;;;;;;;1.33;1.33;;;;;23.35;54.20;100823.47;146630;752;46014;-76
2023/08/10 04:24:17;;;;;;;;;2.00;1.00;;;;;23.41;54.29;100826.13;146624;610;46012;-77
2023/08/10 04:27:28;;;;;;;;;3.00;2.00;;;;;23.45;54.23;100827.88;146630;609;46010;-78
2023/08/10 04:30:29;;;;;;;;;3.00;2.00;;;;;23.47;54.16;100830.53;146622;615;46014;-78
2023/08/10 04:33:22;;;;;;;;;2.67;2.67;;;;;23.44;54.94;100828.75;146628;597;47010;-74
2023/08/10 04:36:40;;;;;;;;;1.67;1.67;;;;;23.41;54.63;100836.69;146624;686;46012;-74
2023/08/10 04:39:32;;;;;;;;;1.50;1.50;;;;;23.39;54.90;100835.81;146630;670;47008;-74
2023/08/10 04:42:41;;;;;;;;;6.00;4.00;;;;;23.43;55.00;100839.38;146620;590;46016;-74
2023/08/10 04:46:03;;;;;;;;;3.00;2.67;;;;;23.56;55.34;100837.59;146616;594;47015;-74
2023/08/10 04:49:10;;;;;;;;;5.00;3.00;;;;;23.75;54.41;100844.66;146618;585;46017;-75
2023/08/10 04:52:17;;;;;;;;;5.00;4.67;;;;;23.13;53.46;100700.91;146620;595;47014;-75
2023/08/10 04:55:22;;;;;;;;;4.67;4.00;;;;;24.14;52.99;100838.44;146612;570;46017;-75
2023/08/10 04:58:23;;;;;;;;;3.67;3.67;;;;;24.40;51.99;100848.94;146621;684;46020;-77
2023/08/10 05:01:26;;;;;;;;;3.00;3.00;;;;;24.56;51.76;100836.53;146714;569;46012;-78
2023/08/10 05:04:19;;;;;;;;;3.00;3.00;;;;;24.89;52.52;100853.16;146624;571;46017;-79
2023/08/10 05:07:23;;;;;;;;;2.00;2.00;;;;;25.20;51.59;100859.19;146632;589;46030;-79
2023/08/10 05:10:25;;;;;;;;;5.67;4.00;;;;;25.50;49.99;100871.34;146625;583;47013;-77
2023/08/10 05:13:31;;;;;;;;;4.33;4.00;;;;;25.74;49.25;100864.09;146627;640;47020;-77
2023/08/10 05:16:37;;;;;;;;;4.33;4.33;;;;;26.01;49.13;100866.53;146623;630;46016;-79
2023/08/10 05:19:41;;;;;;;;;3.00;2.00;;;;;26.27;48.26;100870.69;146631;579;46010;-80
2023/08/10 05:22:46;;;;;;;;;4.67;3.33;;;;;26.51;46.81;100868.66;146622;597;46919;-80
2023/08/10 05:25:49;;;;;;;;;4.33;3.67;;;;;26.74;47.10;100866.59;146628;584;46029;-82
2023/08/10 05:28:55;;;;;;;;;3.00;3.00;;;;;26.95;46.08;100870.75;146625;662;46016;-76
2023/08/10 05:31:57;;;;;;;;;1.00;0.00;;;;;27.14;46.00;100874.06;146629;589;46021;-74
